Latest Weather Observations for Redesdale

IDV60801

Issued at 3:52 am EDT Tuesday 19 October 2021 (issued every 10 minutes, with the page automatically refreshed every 10 minutes)

About weather observations | Map of weather stations | Latest weather observations for VIC | Other Formats
Station Details ID: 088051 Name: REDESDALE Lat: -37.02 Lon: 144.52 Height: 290.0 m
Data from the previous 72 hours. | See also: Recent months at Redesdale
Date/Time
EDT
Temp
°C
App
Temp
°C
Dew
Point
°C
Rel
Hum
%
Delta-T
°C
Wind Press
QNH
hPa
Press
MSL
hPa
Rain since
9am
mm
Dir  Spd
km/h
Gust
km/h
Spd
kts
Gust
kts
19/03:30am 5.8 2.9 4.6 92 0.5 S 9 13 5 7 - - 0.0
19/03:00am 5.9 3.1 5.2 95 0.3 SSW 9 15 5 8 - - 0.0
19/02:30am 4.7 2.2 4.0 95 0.3 SSW 6 9 3 5 - - 0.0
19/02:00am 5.7 3.2 4.5 92 0.5 SSW 7 9 4 5 - - 0.0
19/01:30am 6.7 4.2 4.9 88 0.8 SW 7 9 4 5 - - 0.0
19/01:00am 7.4 4.6 5.0 85 1.1 SW 9 17 5 9 - - 0.0
19/12:30am 8.1 4.2 5.2 82 1.3 SSW 15 20 8 11 - - 0.0
19/12:00am 8.8 4.6 5.5 80 1.5 SSW 17 30 9 16 - - 0.0
 
Date/Time
EDT
Temp
°C
App
Temp
°C
Dew
Point
°C
Rel
Hum
%
Delta-T
°C
Wind Press
QNH
hPa
Press
MSL
hPa
Rain since
9am
mm
Dir  Spd
km/h
Gust
km/h
Spd
kts
Gust
kts
18/11:30pm 8.3 5.2 5.6 83 1.2 SSW 11 15 6 8 - - 0.0
18/11:00pm 7.6 5.2 5.4 86 1.0 SSW 7 9 4 5 - - 0.0
18/10:30pm 8.1 5.5 5.9 86 1.0 SSW 9 15 5 8 - - 0.0
18/10:00pm 8.8 6.1 5.5 80 1.5 S 9 15 5 8 - - 0.0
18/09:30pm 9.3 7.0 5.9 79 1.6 SSW 7 13 4 7 - - 0.0
18/09:00pm 10.2 7.6 6.0 75 2.0 SSW 9 17 5 9 - - 0.0
18/08:30pm 10.8 8.3 6.6 75 2.0 SSW 9 17 5 9 - - 0.0
18/08:00pm 11.2 9.2 7.3 77 1.9 S 7 13 4 7 - - 0.0
18/07:30pm 12.7 8.5 7.6 71 2.5 SSW 19 28 10 15 - - 0.0
18/07:00pm 14.4 10.7 7.9 65 3.3 SSW 17 26 9 14 - - 0.0
18/06:30pm 15.2 12.7 9.6 69 2.9 S 13 24 7 13 - - 0.0
18/06:00pm 17.9 15.3 9.3 57 4.6 SW 13 20 7 11 - - 0.0
18/05:30pm 19.2 17.7 10.7 58 4.7 SSW 9 15 5 8 - - 0.0
18/05:00pm 18.5 16.3 9.3 55 4.9 SW 11 15 6 8 - - 0.0
18/04:30pm 18.8 17.3 9.3 54 5.1 SW 7 15 4 8 - - 0.0
18/04:00pm 18.6 17.0 8.6 52 5.3 SW 7 17 4 9 - - 0.0
18/03:30pm 18.3 17.0 9.1 55 4.9 NNW 6 9 3 5 - - 0.0
18/03:00pm 18.1 16.7 9.5 57 4.6 N 7 11 4 6 - - 0.0
18/02:30pm 19.4 17.6 9.6 53 5.3 N 9 15 5 8 - - 0.0
18/02:00pm 17.1 16.1 8.8 58 4.3 N 4 7 2 4 - - 0.0
18/01:30pm 16.5 15.0 9.0 61 3.9 NNE 7 13 4 7 - - 0.0
18/01:00pm 15.5 13.5 8.5 63 3.6 NNE 9 13 5 7 - - 0.0
18/12:30pm 14.5 12.7 7.8 64 3.4 NE 7 11 4 6 - - 0.0
18/12:00pm 14.0 12.4 8.2 68 2.9 NNE 6 9 3 5 - - 0.0
18/11:30am 13.7 12.5 7.9 68 2.9 N 4 6 2 3 - - 0.0
18/11:00am 13.5 11.5 7.3 66 3.1 NNE 7 9 4 5 - - 0.0
18/10:30am 13.6 12.5 8.4 71 2.6 NNE 4 9 2 5 - - 0.0
18/10:00am 12.7 11.1 7.8 72 2.4 NE 6 11 3 6 - - 0.0
18/09:30am 12.0 10.8 8.1 77 1.9 NE 4 7 2 4 - - 0.0
18/09:00am 11.4 9.8 8.8 84 1.3 SE 7 9 4 5 - - 0.0
18/08:30am 9.9 8.8 8.5 91 0.7 ENE 4 7 2 4 - - 0.0
18/08:00am 10.0 9.2 9.5 97 0.3 S 4 4 2 2 - - 0.0
18/07:30am 7.0 5.1 6.9 99 0.0 SE 6 6 3 3 - - 0.0
18/07:00am 6.6 5.0 6.2 97 0.2 SE 4 6 2 3 - - 0.0
18/06:30am 6.8 4.8 6.1 95 0.3 ESE 6 6 3 3 - - 0.0
18/06:00am 6.6 5.0 6.3 98 0.1 SE 4 6 2 3 - - 0.0
18/05:30am 5.8 4.0 5.2 96 0.3 SE 4 6 2 3 - - 0.0
18/05:00am 4.9 2.5 4.3 96 0.3 SE 6 7 3 4 - - 0.0
18/04:30am 4.3 2.2 4.0 98 0.1 SSW 4 6 2 3 - - 0.0
18/04:00am 4.3 1.8 4.0 98 0.1 SSW 6 6 3 3 - - 0.0
18/03:30am 5.0 2.7 4.7 98 0.1 SSW 6 7 3 4 - - 0.0
18/03:00am 5.0 2.7 4.9 99 0.0 SW 6 7 3 4 - - 0.0
18/02:30am 5.0 2.5 4.9 99 0.0 SW 7 7 4 4 - - 0.0
18/02:00am 5.1 2.8 5.0 99 0.0 SW 6 7 3 4 - - 0.0
18/01:30am 5.3 3.4 4.9 97 0.2 SW 4 4 2 2 - - 0.0
18/01:00am 5.7 3.8 5.1 96 0.3 SW 4 7 2 4 - - 0.0
18/12:30am 6.2 4.1 5.8 97 0.2 SW 6 9 3 5 - - 0.0
18/12:00am 6.2 4.1 5.8 97 0.2 SW 6 7 3 4 - - 0.0
 
Date/Time
EDT
Temp
°C
App
Temp
°C
Dew
Point
°C
Rel
Hum
%
Delta-T
°C
Wind Press
QNH
hPa
Press
MSL
hPa
Rain since
9am
mm
Dir  Spd
km/h
Gust
km/h
Spd
kts
Gust
kts
17/11:30pm 7.0 5.3 5.9 93 0.5 SW 4 6 2 3 - - 0.0
17/11:00pm 7.5 5.8 5.8 89 0.8 SW 4 4 2 2 - - 0.0
17/10:30pm 7.4 5.7 5.9 90 0.7 WSW 4 6 2 3 - - 0.0
17/10:00pm 8.1 6.5 6.2 88 0.9 WSW 4 6 2 3 - - 0.0
17/09:30pm 9.0 7.4 6.3 83 1.3 WSW 4 6 2 3 - - 0.0
17/09:00pm 9.5 8.2 6.0 79 1.6 WNW 2 2 1 1 - - 0.0
17/08:30pm 10.8 9.2 6.4 74 2.1 WNW 4 4 2 2 - - 0.0
17/08:00pm 13.2 11.1 5.6 60 3.6 NNW 6 6 3 3 - - 0.0
17/07:30pm 13.9 12.6 6.0 59 3.8 NW 2 4 1 2 - - 0.0
17/07:00pm 14.2 12.6 6.3 59 3.9 NW 4 6 2 3 - - 0.0
17/06:30pm 15.2 13.4 5.4 52 4.7 WNW 4 7 2 4 - - 0.0
17/06:00pm 16.1 14.6 5.1 48 5.3 NNW 2 6 1 3 - - 0.0
17/05:30pm 16.1 14.0 6.5 53 4.8 NW 7 11 4 6 - - 0.0
17/05:00pm 16.6 14.4 6.1 50 5.2 NNW 7 15 4 8 - - 0.0
17/04:30pm 16.5 15.0 6.6 52 4.9 NNW 4 11 2 6 - - 0.0
17/04:00pm 15.8 13.6 5.1 49 5.1 NW 6 13 3 7 - - 0.0
17/03:30pm 17.2 14.3 6.4 49 5.4 NW 11 17 6 9 - - 0.0
17/03:00pm 16.1 14.2 6.8 54 4.6 NW 6 11 3 6 - - 0.0
17/02:30pm 15.7 13.4 5.9 52 4.8 WNW 7 17 4 9 - - 0.0
17/02:00pm 16.5 13.8 5.8 49 5.3 WNW 9 19 5 10 - - 0.0
17/01:30pm 16.1 13.1 6.0 51 5.0 NW 11 17 6 9 - - 0.0
17/01:00pm 14.8 12.4 5.3 53 4.6 NW 7 17 4 9 - - 0.0
17/12:30pm 14.7 12.4 5.5 54 4.4 W 7 13 4 7 - - 0.0
17/12:00pm 13.9 11.4 4.8 54 4.3 WSW 7 11 4 6 - - 0.0
17/11:30am 13.4 10.9 4.6 55 4.1 NW 7 11 4 6 - - 0.0
17/11:00am 13.5 10.8 5.7 59 3.7 NNW 9 13 5 7 - - 0.0
17/10:30am 11.8 9.7 5.7 66 2.9 NW 6 9 3 5 - - 0.0
17/10:00am 11.8 9.6 5.4 65 3.0 E 6 9 3 5 - - 0.0
17/09:30am 11.4 9.9 5.1 65 2.9 S 2 4 1 2 - - 0.0
17/09:00am 10.9 8.5 4.4 64 3.0 S 6 11 3 6 - - 0.0
17/08:30am 10.6 9.4 6.4 75 2.0 SSW 2 4 1 2 - - 0.0
17/08:00am 8.0 7.1 6.1 88 0.9 CALM 0 2 0 1 - - 0.0
17/07:30am 5.1 3.6 4.8 98 0.1 SSW 2 4 1 2 - - 0.0
17/07:00am 3.5 1.3 3.4 99 0.0 SSW 4 4 2 2 - - 0.0
17/06:30am 4.2 1.7 3.8 97 0.2 SSW 6 7 3 4 - - 0.0
17/06:00am 4.4 1.9 3.5 94 0.4 SSW 6 7 3 4 - - 0.0
17/05:30am 5.7 3.3 4.3 91 0.6 SSW 6 7 3 4 - - 0.0
17/05:00am 6.3 4.9 5.3 93 0.4 SSW 2 6 1 3 - - 0.0
17/04:30am 6.0 4.3 4.2 88 0.8 SSW 2 4 1 2 - - 0.0
17/04:00am 7.2 5.6 4.5 83 1.2 SSW 2 2 1 1 - - 0.0
17/03:30am 8.7 6.8 5.1 78 1.6 SW 4 9 2 5 - - 0.0
17/03:00am 8.6 7.7 5.9 83 1.2 CALM 0 2 0 1 - - 0.0
17/02:30am 8.6 7.2 5.7 82 1.3 SSW 2 4 1 2 - - 0.0
17/02:00am 8.5 6.3 5.4 81 1.4 SSW 6 11 3 6 - - 0.0
17/01:30am 8.1 5.9 5.4 83 1.2 SW 6 9 3 5 - - 0.0
17/01:00am 7.2 5.4 5.2 87 0.9 SW 4 6 2 3 - - 0.0
17/12:30am 5.9 4.0 4.9 93 0.4 SSW 4 7 2 4 - - 0.0
17/12:00am 6.2 4.0 5.5 95 0.3 SW 6 6 3 3 - - 0.0
 
Date/Time
EDT
Temp
°C
App
Temp
°C
Dew
Point
°C
Rel
Hum
%
Delta-T
°C
Wind Press
QNH
hPa
Press
MSL
hPa
Rain since
9am
mm
Dir  Spd
km/h
Gust
km/h
Spd
kts
Gust
kts
16/11:30pm 7.0 5.7 5.8 92 0.5 SW 2 4 1 2 - - 0.0
16/11:00pm 7.8 6.5 5.9 88 0.9 SW 2 6 1 3 - - 0.0
16/10:30pm 8.6 6.9 5.9 83 1.2 SW 4 7 2 4 - - 0.0
16/10:00pm 9.7 7.8 6.8 82 1.4 SW 6 9 3 5 - - 0.0
16/09:30pm 8.7 6.5 6.0 83 1.3 SSW 7 13 4 7 - - 0.0
16/09:00pm 9.3 6.7 6.0 80 1.5 SW 9 15 5 8 - - 0.0
16/08:30pm 10.7 7.7 6.1 73 2.2 SW 11 19 6 10 - - 0.0
16/08:00pm 11.6 8.7 6.5 71 2.4 SW 11 22 6 12 - - 0.0
16/07:30pm 11.9 9.0 6.4 69 2.6 WSW 11 20 6 11 - - 0.0
16/07:00pm 12.4 9.4 6.0 65 3.1 SW 11 20 6 11 - - 0.0
16/06:30pm 13.2 10.1 5.6 60 3.6 SW 11 24 6 13 - - 0.0
16/06:00pm 14.4 9.6 4.4 51 4.7 SW 19 32 10 17 - - 0.0
16/05:30pm 15.5 10.9 5.4 51 4.9 SW 19 30 10 16 - - 0.0
16/05:00pm 15.9 11.7 5.8 51 4.9 WSW 17 30 9 16 - - 0.0
16/04:30pm 16.6 12.9 6.4 51 5.1 SW 15 24 8 13 - - 0.0
16/04:00pm 16.5 12.3 7.4 55 4.6 SW 19 30 10 16 - - 0.0
16/03:30pm 17.4 13.6 7.5 52 5.1 WSW 17 39 9 21 - - 0.0
16/03:00pm 16.1 12.8 8.1 59 4.1 WSW 15 26 8 14 - - 0.0
16/02:30pm 15.7 12.1 8.4 62 3.8 SW 17 28 9 15 - - 0.0
16/02:00pm 15.1 11.7 7.6 61 3.8 SW 15 22 8 12 - - 0.0
16/01:30pm 15.7 12.2 7.2 57 4.3 SW 15 26 8 14 - - 0.0
16/01:00pm 14.6 10.2 6.4 58 4.0 SW 19 30 10 16 - - 0.0
16/12:30pm 14.1 9.4 6.0 58 3.9 SW 20 35 11 19 - - 0.0
16/12:00pm 14.5 10.2 6.8 60 3.8 SW 19 33 10 18 - - 0.0
16/11:30am 14.7 10.9 7.5 62 3.6 SW 17 26 9 14 - - 0.0
16/11:00am 13.9 8.9 6.5 61 3.6 SW 22 33 12 18 - - 0.0
16/10:30am 13.9 8.7 7.4 65 3.2 SSW 24 39 13 21 - - 0.0
16/10:00am 12.8 9.8 7.7 71 2.5 WSW 13 24 7 13 - - 0.0
16/09:30am 12.4 8.8 6.7 68 2.8 SW 15 22 8 12 - - 0.0
16/09:00am 11.5 8.2 6.6 72 2.4 SW 13 32 7 17 - - -
16/08:30am 11.0 8.5 8.2 83 1.4 SW 11 22 6 12 - - -
16/08:00am 10.3 7.1 8.4 88 0.9 SW 15 24 8 13 - - -
16/07:30am 10.1 7.6 8.2 88 0.9 SW 11 20 6 11 - - -
16/07:00am 9.5 7.2 8.9 96 0.3 WSW 11 19 6 10 - - -
16/06:30am 9.2 6.7 8.3 94 0.4 WSW 11 20 6 11 - - -
16/06:00am 9.3 6.5 8.7 96 0.3 WSW 13 22 7 12 - - -
16/05:30am 9.2 6.7 8.3 94 0.4 WSW 11 24 6 13 - - -
16/05:00am 9.2 6.3 8.1 93 0.5 WSW 13 24 7 13 - - -
16/04:30am 9.3 5.7 8.2 93 0.5 WSW 17 28 9 15 - - -
16/04:00am 9.3 6.0 7.9 91 0.7 WSW 15 32 8 17 - - -

Other formats

Comma delimited format used in spreadsheet applications
http://www.bom.gov.au/fwo/IDV60801/IDV60801.94859.axf

JavaScript Object Notation format (JSON) in row-major order
http://www.bom.gov.au/fwo/IDV60801/IDV60801.94859.json

Data quality

Most of these data are generated automatically and are frequently updated. Quality checks on data are not normally performed. It is possible for incorrect values to appear. Refer to information at About Latest Weather Observations and please check the disclaimer before using these data.